createdAt,value
2018-04-27T00:00:09.517Z,9.60
2018-04-27T00:02:37.101Z,9.83
2018-04-27T00:05:04.914Z,10.70
2018-04-27T00:07:32.471Z,10.00
2018-04-27T00:10:00.031Z,10.37
2018-04-27T00:12:27.590Z,10.00
2018-04-27T00:14:55.254Z,10.13
2018-04-27T00:17:22.828Z,10.17
2018-04-27T00:19:50.785Z,9.97
2018-04-27T00:22:18.314Z,9.87
2018-04-27T00:24:46.575Z,9.53
2018-04-27T00:27:14.106Z,10.10
2018-04-27T00:29:41.662Z,9.87
2018-04-27T00:32:09.243Z,9.70
2018-04-27T00:34:36.807Z,10.00
2018-04-27T00:37:04.420Z,10.73
2018-04-27T00:39:32.025Z,10.50
2018-04-27T00:41:59.605Z,10.03
2018-04-27T00:44:27.141Z,10.70
2018-04-27T00:46:54.731Z,9.73
2018-04-27T00:49:22.530Z,10.40
2018-04-27T00:51:50.097Z,10.83
2018-04-27T00:54:17.653Z,11.43
2018-04-27T00:56:45.207Z,10.90
2018-04-27T00:59:12.764Z,11.00
2018-04-27T01:01:40.630Z,11.50
2018-04-27T01:04:08.167Z,10.67
2018-04-27T01:06:35.726Z,11.53
2018-04-27T01:09:03.489Z,11.53
2018-04-27T01:11:31.011Z,11.90
2018-04-27T01:13:58.627Z,11.23
2018-04-27T01:16:26.139Z,11.37
2018-04-27T01:18:53.736Z,11.57
2018-04-27T01:21:21.261Z,12.07
2018-04-27T01:23:48.809Z,11.63
2018-04-27T01:26:16.393Z,12.47
2018-04-27T01:28:43.926Z,11.90
2018-04-27T01:31:11.491Z,12.23
2018-04-27T01:33:39.115Z,12.43
2018-04-27T01:36:06.634Z,12.60
2018-04-27T01:38:34.209Z,11.73
2018-04-27T01:41:01.849Z,12.10
2018-04-27T01:43:29.384Z,13.07
2018-04-27T01:45:56.923Z,12.53
2018-04-27T01:48:24.481Z,12.23
2018-04-27T01:50:52.038Z,14.00
2018-04-27T01:53:19.642Z,12.90
2018-04-27T01:55:47.578Z,13.60
2018-04-27T01:58:15.222Z,12.80
2018-04-27T02:00:42.942Z,13.37
2018-04-27T02:03:10.511Z,12.63
2018-04-27T02:05:38.045Z,12.43
2018-04-27T02:08:05.574Z,12.20
2018-04-27T02:10:33.160Z,12.43
2018-04-27T02:13:00.720Z,12.20
2018-04-27T02:15:28.277Z,12.37
2018-04-27T02:17:55.873Z,12.70
2018-04-27T02:20:23.429Z,12.43
2018-04-27T02:22:50.950Z,13.23
2018-04-27T02:25:18.504Z,11.73
2018-04-27T02:27:46.044Z,12.60
2018-04-27T02:30:13.623Z,12.50
2018-04-27T02:32:41.184Z,12.80
2018-04-27T02:35:08.691Z,12.40
2018-04-27T02:37:36.246Z,13.10
2018-04-27T02:40:03.859Z,12.80
2018-04-27T02:42:31.397Z,12.80
2018-04-27T02:44:58.959Z,12.20
2018-04-27T02:47:26.517Z,12.43
2018-04-27T02:49:54.082Z,12.90
2018-04-27T02:52:21.598Z,12.30
2018-04-27T02:54:49.219Z,12.80
2018-04-27T02:57:16.744Z,12.40
2018-04-27T02:59:44.253Z,12.83
2018-04-27T03:02:11.779Z,12.33
2018-04-27T03:04:39.339Z,12.70
2018-04-27T03:07:06.935Z,12.50
2018-04-27T03:09:34.485Z,12.67
2018-04-27T03:12:02.371Z,13.30
2018-04-27T03:14:29.918Z,13.03
2018-04-27T03:16:57.481Z,12.37
2018-04-27T03:19:25.008Z,12.80
2018-04-27T03:21:52.534Z,13.37
2018-04-27T03:24:20.062Z,13.57
2018-04-27T03:26:47.583Z,12.83
2018-04-27T03:29:15.213Z,12.53
2018-04-27T03:31:42.747Z,12.90
2018-04-27T03:34:10.267Z,12.80
2018-04-27T03:36:38.088Z,14.77
2018-04-27T03:39:05.896Z,13.03
2018-04-27T03:41:33.402Z,12.90
2018-04-27T03:44:00.963Z,13.03
2018-04-27T03:46:28.502Z,14.03
2018-04-27T03:48:56.045Z,13.10
2018-04-27T03:51:23.579Z,12.83
2018-04-27T03:53:52.150Z,14.10
2018-04-27T03:56:19.670Z,12.80
2018-04-27T03:58:47.188Z,13.10
2018-04-27T04:01:26.897Z,12.73
2018-04-27T04:06:57.403Z,14.97
2018-04-27T04:09:24.910Z,15.47
2018-04-27T04:11:52.425Z,14.60
2018-04-27T04:14:20.024Z,14.73
2018-04-27T04:16:47.559Z,13.60
2018-04-27T04:19:15.095Z,14.17
2018-04-27T04:21:42.638Z,14.10
2018-04-27T04:24:10.168Z,13.97
2018-04-27T04:26:37.676Z,13.93
2018-04-27T04:29:05.212Z,14.97
2018-04-27T04:31:32.744Z,13.93
2018-04-27T04:34:00.262Z,13.50
2018-04-27T04:36:27.821Z,13.07
2018-04-27T04:38:55.655Z,15.30
2018-04-27T04:41:23.155Z,13.80
2018-04-27T04:43:50.707Z,13.60
2018-04-27T04:46:18.207Z,14.17
2018-04-27T04:48:45.824Z,13.33
2018-04-27T04:51:13.373Z,14.30
2018-04-27T04:53:41.205Z,14.60
2018-04-27T04:56:08.718Z,14.80
2018-04-27T04:58:36.253Z,14.40
2018-04-27T05:01:03.783Z,13.83
2018-04-27T05:03:31.307Z,13.60
2018-04-27T05:05:58.881Z,14.20
2018-04-27T05:08:26.410Z,14.30
2018-04-27T05:10:54.175Z,14.43
2018-04-27T05:13:21.690Z,14.07
2018-04-27T05:15:49.198Z,15.03
2018-04-27T05:21:29.602Z,14.50
2018-04-27T05:23:57.171Z,14.03
2018-04-27T05:26:24.697Z,15.37
2018-04-27T05:28:52.241Z,14.30
2018-04-27T05:31:23.702Z,15.40
2018-04-27T05:33:51.252Z,14.60
2018-04-27T05:36:18.755Z,15.10
2018-04-27T05:38:46.349Z,15.33
2018-04-27T05:41:15.137Z,15.53
2018-04-27T05:43:42.672Z,16.20
2018-04-27T05:46:10.324Z,15.20
2018-04-27T05:48:37.902Z,14.83
2018-04-27T05:51:05.454Z,15.90
2018-04-27T05:53:33.032Z,14.90
2018-04-27T05:56:00.613Z,15.73
2018-04-27T05:58:28.157Z,16.03
2018-04-27T06:00:55.947Z,15.40
2018-04-27T06:03:23.455Z,15.50
2018-04-27T06:05:50.973Z,17.53
2018-04-27T06:08:18.529Z,16.80
2018-04-27T06:10:46.088Z,16.40
2018-04-27T06:13:13.733Z,16.07
2018-04-27T06:15:41.599Z,16.80
2018-04-27T06:18:09.149Z,16.97
2018-04-27T06:20:36.680Z,15.93
2018-04-27T06:23:04.235Z,15.90
2018-04-27T06:25:32.170Z,16.37
2018-04-27T06:27:59.816Z,16.70
2018-04-27T06:30:27.394Z,17.30
2018-04-27T06:32:55.706Z,16.73
2018-04-27T06:35:23.232Z,16.97
2018-04-27T06:37:50.782Z,16.33
2018-04-27T06:40:18.947Z,16.67
2018-04-27T06:42:48.151Z,17.83
2018-04-27T06:45:15.761Z,17.93
2018-04-27T06:47:43.388Z,16.70
2018-04-27T06:50:12.845Z,17.40
2018-04-27T06:52:40.454Z,17.50
2018-04-27T06:55:08.007Z,17.03
2018-04-27T06:57:35.837Z,18.70
2018-04-27T07:00:05.570Z,18.90
2018-04-27T07:02:35.493Z,17.97
2018-04-27T07:05:03.212Z,17.70
2018-04-27T07:07:40.973Z,18.77
2018-04-27T07:10:08.637Z,16.90
2018-04-27T07:12:36.222Z,17.70
2018-04-27T07:15:03.947Z,17.07
2018-04-27T07:17:31.510Z,17.00
2018-04-27T07:20:00.191Z,16.63
2018-04-27T07:22:28.498Z,17.17
2018-04-27T07:24:56.621Z,18.47
2018-04-27T07:27:24.223Z,17.27
2018-04-27T07:29:52.185Z,16.83
2018-04-27T07:32:20.009Z,18.43
2018-04-27T07:34:47.929Z,16.60
2018-04-27T07:37:15.624Z,17.80
2018-04-27T07:39:43.221Z,16.60
2018-04-27T07:42:10.756Z,16.77
2018-04-27T07:44:38.347Z,16.10
2018-04-27T07:47:06.997Z,17.60
2018-04-27T07:49:34.612Z,17.00
2018-04-27T07:52:02.188Z,16.73
2018-04-27T07:54:29.739Z,15.20
2018-04-27T07:56:57.286Z,16.80
2018-04-27T07:59:25.164Z,15.37
2018-04-27T08:01:52.669Z,16.23
2018-04-27T08:04:20.198Z,16.20
2018-04-27T08:06:48.697Z,16.30
2018-04-27T08:09:16.253Z,16.17
2018-04-27T08:11:43.813Z,14.30
2018-04-27T08:14:11.396Z,16.10
2018-04-27T08:16:38.901Z,14.63
2018-04-27T08:19:06.439Z,14.83
2018-04-27T08:21:34.073Z,16.57
2018-04-27T08:24:01.706Z,16.10
2018-04-27T08:26:29.261Z,16.00
2018-04-27T08:28:59.783Z,13.83
2018-04-27T08:31:27.341Z,14.30
2018-04-27T08:33:54.959Z,13.77
2018-04-27T08:36:22.541Z,14.60
2018-04-27T08:38:50.177Z,15.47
2018-04-27T08:41:17.756Z,14.37
2018-04-27T08:43:45.352Z,15.90
2018-04-27T08:46:12.957Z,14.87
2018-04-27T08:48:40.483Z,15.13
2018-04-27T08:51:08.095Z,16.53
2018-04-27T08:53:35.727Z,14.50
2018-04-27T08:56:03.342Z,14.87
2018-04-27T08:58:30.988Z,15.40
2018-04-27T09:00:58.567Z,14.40
2018-04-27T09:03:26.115Z,15.80
2018-04-27T09:05:54.165Z,16.30
2018-04-27T09:08:22.118Z,16.10
2018-04-27T09:10:49.666Z,15.80
2018-04-27T09:13:17.203Z,15.50
2018-04-27T09:15:44.724Z,14.73
2018-04-27T09:18:12.290Z,14.70
2018-04-27T09:20:39.839Z,14.47
2018-04-27T09:23:07.366Z,14.30
2018-04-27T09:25:34.922Z,13.73
2018-04-27T09:28:02.466Z,15.00
2018-04-27T09:30:29.994Z,14.77
2018-04-27T09:32:57.539Z,14.17
2018-04-27T09:35:25.491Z,14.13
2018-04-27T09:37:53.001Z,13.10
2018-04-27T09:40:20.551Z,12.70
2018-04-27T09:42:48.155Z,12.10
2018-04-27T09:45:15.744Z,13.47
2018-04-27T09:47:43.287Z,11.53
2018-04-27T09:50:10.864Z,12.10
2018-04-27T09:52:38.473Z,12.43
2018-04-27T09:55:06.259Z,12.37
2018-04-27T09:57:33.850Z,12.90
2018-04-27T10:00:01.692Z,12.77
2018-04-27T10:02:29.226Z,12.10
2018-04-27T10:04:56.957Z,11.50
2018-04-27T10:07:24.504Z,12.10
2018-04-27T10:09:52.167Z,12.57
2018-04-27T10:12:19.758Z,13.03
2018-04-27T10:14:47.332Z,12.20
2018-04-27T10:17:14.918Z,11.90
2018-04-27T10:19:42.508Z,12.80
2018-04-27T10:22:10.135Z,12.13
2018-04-27T10:24:37.728Z,12.00
2018-04-27T10:27:05.341Z,12.10
2018-04-27T10:29:32.879Z,11.27
2018-04-27T10:32:00.916Z,12.80
2018-04-27T10:34:28.957Z,12.10
2018-04-27T10:36:56.522Z,11.77
2018-04-27T10:39:24.279Z,12.00
2018-04-27T10:41:51.910Z,11.30
2018-04-27T10:44:19.573Z,12.27
2018-04-27T10:46:48.796Z,12.83
2018-04-27T10:49:16.331Z,12.80
2018-04-27T10:51:43.874Z,12.73
2018-04-27T10:54:11.417Z,11.50
2018-04-27T10:56:38.979Z,11.10
2018-04-27T10:59:06.521Z,10.87
2018-04-27T11:01:34.058Z,12.17
2018-04-27T11:04:01.619Z,11.43
2018-04-27T11:06:29.149Z,11.73
2018-04-27T11:08:56.673Z,11.07
2018-04-27T11:11:24.242Z,12.90
2018-04-27T11:13:51.816Z,11.90
2018-04-27T11:16:19.400Z,12.40
2018-04-27T11:18:46.984Z,11.03
2018-04-27T11:21:14.503Z,12.20
2018-04-27T11:23:42.433Z,11.90
2018-04-27T11:26:09.999Z,12.70
2018-04-27T11:28:37.583Z,11.30
2018-04-27T11:31:05.081Z,12.03
2018-04-27T11:33:32.677Z,11.07
2018-04-27T11:36:00.206Z,12.40
2018-04-27T11:38:27.730Z,12.10
2018-04-27T11:40:55.293Z,12.47
2018-04-27T11:43:22.815Z,12.27
2018-04-27T11:45:50.345Z,11.43
2018-04-27T11:48:17.917Z,11.93
2018-04-27T11:50:45.683Z,11.53
2018-04-27T11:53:13.208Z,12.63
2018-04-27T11:55:40.795Z,12.40
2018-04-27T11:58:08.347Z,12.83
2018-04-27T12:00:35.878Z,12.57
2018-04-27T12:03:03.710Z,11.50
2018-04-27T12:05:31.269Z,11.70
2018-04-27T12:08:00.019Z,11.93
2018-04-27T12:10:27.615Z,10.63
2018-04-27T12:12:55.177Z,10.53
2018-04-27T12:15:22.765Z,10.93
2018-04-27T12:17:50.751Z,11.37
2018-04-27T12:20:18.290Z,10.77
2018-04-27T12:22:47.100Z,10.13
2018-04-27T12:25:14.705Z,11.00
2018-04-27T12:27:44.044Z,11.10
2018-04-27T12:30:11.640Z,11.17
2018-04-27T12:32:39.558Z,10.90
2018-04-27T12:35:08.088Z,10.73
2018-04-27T12:37:35.912Z,11.83
2018-04-27T12:40:03.459Z,11.23
2018-04-27T12:42:31.620Z,11.37
2018-04-27T12:44:59.444Z,11.40
2018-04-27T12:47:26.953Z,12.70
2018-04-27T12:49:54.749Z,11.70
2018-04-27T12:52:22.611Z,11.90
2018-04-27T12:54:50.211Z,11.50
2018-04-27T12:57:17.738Z,11.60
2018-04-27T12:59:46.633Z,11.70
2018-04-27T13:02:15.566Z,10.90
2018-04-27T13:04:43.124Z,11.27
2018-04-27T13:07:13.222Z,11.40
2018-04-27T13:09:40.751Z,11.00
2018-04-27T13:12:09.700Z,10.87
2018-04-27T13:14:37.256Z,11.80
2018-04-27T13:17:06.055Z,12.17
2018-04-27T13:19:33.574Z,11.10
2018-04-27T13:22:01.121Z,11.30
2018-04-27T13:24:28.729Z,12.00
2018-04-27T13:26:56.657Z,11.57
2018-04-27T13:29:24.204Z,11.10
2018-04-27T13:31:51.736Z,10.87
2018-04-27T13:34:19.306Z,11.37
2018-04-27T13:36:46.837Z,12.10
2018-04-27T13:39:15.688Z,11.73
2018-04-27T13:41:43.983Z,10.90
2018-04-27T13:44:11.528Z,11.60
2018-04-27T13:46:39.099Z,11.20
2018-04-27T13:49:07.849Z,11.07
2018-04-27T13:51:35.501Z,11.23
2018-04-27T13:54:03.576Z,10.50
2018-04-27T13:56:31.451Z,10.63
2018-04-27T13:59:02.174Z,11.07
2018-04-27T14:01:30.243Z,10.30
2018-04-27T14:03:57.864Z,10.83
2018-04-27T14:06:25.386Z,10.23
2018-04-27T14:08:55.867Z,9.90
2018-04-27T14:11:23.405Z,10.27
2018-04-27T14:13:50.928Z,10.17
2018-04-27T14:16:18.969Z,11.13
2018-04-27T14:18:48.595Z,10.80
2018-04-27T14:21:16.136Z,10.90
2018-04-27T14:23:43.694Z,10.80
2018-04-27T14:26:11.224Z,10.30
2018-04-27T14:28:38.754Z,10.40
2018-04-27T14:31:06.660Z,9.87
2018-04-27T14:33:35.756Z,11.20
2018-04-27T14:36:03.608Z,10.77
2018-04-27T14:38:31.179Z,10.47
2018-04-27T14:40:58.772Z,10.40
2018-04-27T14:43:26.238Z,10.00
2018-04-27T14:45:53.795Z,10.30
2018-04-27T14:48:21.390Z,10.37
2018-04-27T14:50:48.899Z,10.10
2018-04-27T14:53:16.457Z,10.80
2018-04-27T14:55:44.009Z,10.40
2018-04-27T14:58:11.526Z,10.90
2018-04-27T15:00:39.323Z,11.00
2018-04-27T15:03:06.870Z,10.83
2018-04-27T15:05:34.432Z,10.77
2018-04-27T15:08:01.982Z,10.70
2018-04-27T15:10:29.552Z,10.53
2018-04-27T15:12:57.327Z,10.73
2018-04-27T15:15:24.984Z,10.60
2018-04-27T15:17:52.528Z,10.13
2018-04-27T15:20:20.034Z,10.10
2018-04-27T15:22:47.587Z,10.17
2018-04-27T15:25:15.208Z,10.70
2018-04-27T15:27:43.046Z,10.80
2018-04-27T15:30:10.590Z,10.60
2018-04-27T15:32:38.124Z,10.80
2018-04-27T15:35:05.667Z,10.40
2018-04-27T15:37:33.221Z,10.43
2018-04-27T15:40:01.914Z,10.70
2018-04-27T15:42:29.501Z,10.77
2018-04-27T15:44:57.099Z,10.20
2018-04-27T15:47:24.650Z,9.77
2018-04-27T15:49:52.280Z,9.80
2018-04-27T15:52:20.139Z,10.40
2018-04-27T15:54:47.649Z,10.23
2018-04-27T15:57:15.215Z,9.73
2018-04-27T15:59:43.127Z,9.67
2018-04-27T16:02:11.763Z,9.90
2018-04-27T16:04:39.316Z,10.10
2018-04-27T16:07:06.899Z,9.93
2018-04-27T16:09:35.284Z,9.53
2018-04-27T16:12:02.766Z,10.23
2018-04-27T16:14:30.643Z,9.93
2018-04-27T16:16:58.169Z,10.70
2018-04-27T16:19:25.691Z,9.80
2018-04-27T16:21:53.282Z,10.13
2018-04-27T16:24:21.778Z,9.70
2018-04-27T16:26:50.249Z,9.10
2018-04-27T16:29:20.817Z,10.17
2018-04-27T16:31:50.049Z,9.87
2018-04-27T16:34:17.578Z,9.73
2018-04-27T16:36:45.121Z,9.83
2018-04-27T16:39:12.667Z,10.00
2018-04-27T16:41:40.180Z,10.00
2018-04-27T16:44:07.776Z,9.10
2018-04-27T16:46:35.352Z,9.20
2018-04-27T16:49:04.477Z,9.63
2018-04-27T16:51:32.710Z,10.00
2018-04-27T16:54:00.517Z,9.33
2018-04-27T16:56:28.045Z,9.47
2018-04-27T16:58:55.607Z,9.43
2018-04-27T17:01:24.000Z,9.90
2018-04-27T17:03:51.734Z,9.80
2018-04-27T17:06:19.335Z,10.53
2018-04-27T17:08:49.238Z,10.40
2018-04-27T17:11:16.748Z,10.07
2018-04-27T17:13:44.328Z,10.93
2018-04-27T17:16:11.884Z,10.43
2018-04-27T17:18:39.452Z,9.80
2018-04-27T17:21:08.613Z,9.30
2018-04-27T17:23:37.655Z,10.17
2018-04-27T17:26:05.391Z,10.10
2018-04-27T17:28:32.989Z,10.20
2018-04-27T17:31:00.536Z,9.80
2018-04-27T17:33:28.298Z,9.60
2018-04-27T17:35:55.845Z,10.00
2018-04-27T17:38:23.554Z,10.33
2018-04-27T17:40:51.082Z,8.93
2018-04-27T17:43:20.919Z,9.30
2018-04-27T17:45:48.524Z,9.87
2018-04-27T17:48:16.207Z,10.13
2018-04-27T17:50:43.849Z,9.77
2018-04-27T17:53:11.494Z,16.60
2018-04-27T17:55:39.107Z,11.67
2018-04-27T17:58:06.592Z,9.70
2018-04-27T18:00:35.566Z,11.60
2018-04-27T18:03:03.137Z,9.50
2018-04-27T18:05:30.686Z,9.93
2018-04-27T18:08:02.220Z,9.43
2018-04-27T18:10:29.784Z,9.67
2018-04-27T18:12:57.365Z,8.97
2018-04-27T18:15:24.883Z,9.47
2018-04-27T18:17:55.139Z,9.53
2018-04-27T18:20:22.756Z,9.73
2018-04-27T18:22:50.357Z,9.60
2018-04-27T18:25:17.951Z,9.60
2018-04-27T18:27:45.778Z,10.30
2018-04-27T18:30:13.288Z,10.13
2018-04-27T18:32:41.233Z,10.20
2018-04-27T18:35:08.770Z,10.03
2018-04-27T18:37:36.344Z,10.17
2018-04-27T18:40:03.874Z,9.67
2018-04-27T18:42:31.538Z,9.80
2018-04-27T18:44:59.213Z,9.27
2018-04-27T18:47:26.870Z,9.47
2018-04-27T18:49:54.426Z,9.67
2018-04-27T18:52:37.458Z,10.00
2018-04-27T18:55:04.991Z,9.60
2018-04-27T18:57:32.521Z,9.93
2018-04-27T19:00:00.050Z,10.30
2018-04-27T19:02:32.587Z,10.10
2018-04-27T19:05:00.579Z,10.60
2018-04-27T19:07:28.334Z,10.80
2018-04-27T19:09:59.233Z,10.50
2018-04-27T19:12:30.212Z,10.67
2018-04-27T19:14:57.783Z,10.70
2018-04-27T19:17:25.393Z,10.70
2018-04-27T19:19:53.027Z,11.50
2018-04-27T19:22:20.797Z,11.27
2018-04-27T19:24:48.315Z,11.17
2018-04-27T19:27:15.918Z,9.83
2018-04-27T19:29:43.447Z,10.20
2018-04-27T19:32:10.954Z,10.80
2018-04-27T19:34:38.539Z,10.60
2018-04-27T19:37:06.076Z,11.80
2018-04-27T19:39:33.586Z,10.20
2018-04-27T19:42:01.144Z,11.30
2018-04-27T19:44:28.704Z,11.00
2018-04-27T19:46:56.218Z,12.70
2018-04-27T19:49:24.214Z,11.90
2018-04-27T19:51:51.770Z,11.83
2018-04-27T19:54:19.293Z,11.90
2018-04-27T19:56:46.818Z,10.73
2018-04-27T19:59:14.352Z,11.77
2018-04-27T20:01:41.869Z,11.00
2018-04-27T20:04:09.488Z,11.60
2018-04-27T20:06:37.093Z,11.10
2018-04-27T20:09:04.702Z,10.60
2018-04-27T20:11:32.296Z,10.80
2018-04-27T20:13:59.857Z,11.03
2018-04-27T20:16:37.147Z,11.70
2018-04-27T20:19:07.459Z,10.40
2018-04-27T20:21:35.251Z,11.43
2018-04-27T20:24:06.553Z,11.73
2018-04-27T20:26:34.251Z,12.40
2018-04-27T20:29:02.591Z,11.57
2018-04-27T20:31:30.507Z,11.80
2018-04-27T20:33:58.075Z,11.40
2018-04-27T20:36:25.609Z,11.33
2018-04-27T20:38:53.226Z,12.50
2018-04-27T20:41:20.730Z,12.63
2018-04-27T20:43:48.242Z,11.73
2018-04-27T20:46:18.564Z,11.87
2018-04-27T20:48:46.149Z,13.27
2018-04-27T20:51:13.716Z,12.33
2018-04-27T20:53:42.812Z,12.90
2018-04-27T20:56:10.371Z,12.50
2018-04-27T20:58:37.901Z,11.80
2018-04-27T21:01:05.431Z,12.23
2018-04-27T21:03:32.985Z,13.03
2018-04-27T21:06:00.516Z,12.30
2018-04-27T21:08:28.054Z,12.60
2018-04-27T21:10:55.647Z,12.43
2018-04-27T21:13:23.149Z,22.80
2018-04-27T21:15:50.699Z,25.20
2018-04-27T21:18:18.210Z,12.80
2018-04-27T21:20:45.716Z,12.70
2018-04-27T21:23:13.255Z,13.10
2018-04-27T21:25:40.781Z,12.40
2018-04-27T21:28:21.725Z,12.60
2018-04-27T21:30:49.220Z,13.07
2018-04-27T21:33:16.789Z,13.30
2018-04-27T21:35:53.849Z,12.87
2018-04-27T21:38:42.925Z,13.23
2018-04-27T21:41:17.882Z,13.07
2018-04-27T21:43:45.721Z,12.93
2018-04-27T21:46:13.228Z,13.57
2018-04-27T21:48:40.809Z,13.30
2018-04-27T21:51:08.371Z,12.33
2018-04-27T21:53:35.924Z,12.80
2018-04-27T21:56:03.458Z,12.50
2018-04-27T21:58:30.953Z,12.90
2018-04-27T22:00:58.535Z,13.17
2018-04-27T22:03:26.085Z,12.40
2018-04-27T22:05:57.279Z,12.73
2018-04-27T22:08:41.357Z,12.33
2018-04-27T22:11:11.872Z,12.90
2018-04-27T22:13:39.393Z,13.07
2018-04-27T22:16:13.141Z,12.60
2018-04-27T22:18:40.694Z,12.33
2018-04-27T22:21:08.515Z,12.43
2018-04-27T22:23:36.823Z,12.83
2018-04-27T22:26:05.301Z,12.40
2018-04-27T22:28:38.684Z,12.63
2018-04-27T22:31:06.202Z,13.10
2018-04-27T22:33:40.639Z,12.60
2018-04-27T22:36:15.798Z,11.97
2018-04-27T22:38:43.323Z,13.70
2018-04-27T22:41:12.572Z,13.07
2018-04-27T22:43:40.168Z,12.00
2018-04-27T22:46:27.445Z,12.80
2018-04-27T22:48:59.242Z,12.73
2018-04-27T22:51:44.363Z,12.27
2018-04-27T22:57:19.692Z,13.00
2018-04-27T22:59:49.846Z,13.03
2018-04-27T23:02:21.029Z,13.20
2018-04-27T23:05:00.397Z,12.80
2018-04-27T23:07:35.877Z,12.20
2018-04-27T23:10:03.395Z,13.53
2018-04-27T23:12:36.426Z,12.43
2018-04-27T23:15:04.866Z,12.57
2018-04-27T23:17:32.788Z,13.37
2018-04-27T23:20:03.174Z,12.80
2018-04-27T23:22:40.763Z,24.30
2018-04-27T23:28:03.427Z,13.50
2018-04-27T23:30:32.828Z,12.63
2018-04-27T23:33:00.366Z,13.57
2018-04-27T23:35:27.893Z,12.70
2018-04-27T23:37:55.903Z,13.07
2018-04-27T23:40:23.438Z,12.80
2018-04-27T23:42:51.059Z,12.87
2018-04-27T23:45:18.629Z,12.70
2018-04-27T23:47:46.135Z,12.07
2018-04-27T23:50:14.743Z,13.53
2018-04-27T23:52:42.296Z,13.00
2018-04-27T23:55:09.815Z,12.33
2018-04-27T23:57:37.311Z,12.83
